createdAt,value
2022-08-07T00:04:41.050Z,2.60
2022-08-07T00:10:26.015Z,2.90
2022-08-07T00:15:55.411Z,2.70
2022-08-07T00:21:56.678Z,2.40
2022-08-07T00:26:58.787Z,3.20
2022-08-07T00:32:34.942Z,5.50
2022-08-07T00:37:48.176Z,5.70
2022-08-07T00:43:59.639Z,6.70
2022-08-07T00:54:16.611Z,6.80
2022-08-07T01:00:15.886Z,7.60
2022-08-07T01:05:32.816Z,6.10
2022-08-07T01:10:56.390Z,6.80
2022-08-07T01:16:12.135Z,6.50
2022-08-07T01:21:38.401Z,7.10
2022-08-07T01:27:17.696Z,7.70
2022-08-07T01:32:31.029Z,7.80
2022-08-07T01:37:42.417Z,8.50
2022-08-07T01:43:10.004Z,8.10
2022-08-07T01:48:40.987Z,7.90
2022-08-07T01:54:08.869Z,7.50
2022-08-07T01:59:30.904Z,7.70
2022-08-07T02:04:56.626Z,8.00
2022-08-07T02:10:26.887Z,7.80
2022-08-07T02:15:37.639Z,8.40
2022-08-07T02:20:57.288Z,7.60
2022-08-07T02:26:33.171Z,7.60
2022-08-07T02:31:59.508Z,9.60
2022-08-07T02:37:11.525Z,7.90
2022-08-07T02:42:21.191Z,7.60
2022-08-07T02:47:44.994Z,6.30
2022-08-07T02:53:46.288Z,5.20
2022-08-07T02:59:18.410Z,5.20
2022-08-07T03:04:42.307Z,5.80
2022-08-07T03:09:56.464Z,5.00
2022-08-07T03:15:15.771Z,5.20
2022-08-07T03:21:04.076Z,5.70
2022-08-07T03:26:21.105Z,5.20
2022-08-07T03:31:42.470Z,5.00
2022-08-07T03:36:57.416Z,5.10
2022-08-07T03:42:16.942Z,6.00
2022-08-07T03:47:29.420Z,5.00
2022-08-07T03:52:40.790Z,5.30
2022-08-07T03:58:34.438Z,4.90
2022-08-07T04:04:17.070Z,4.80
2022-08-07T04:10:15.646Z,4.60
2022-08-07T04:15:37.209Z,4.60
2022-08-07T04:21:07.311Z,5.20
2022-08-07T04:26:35.312Z,4.80
2022-08-07T04:32:09.956Z,5.00
2022-08-07T04:37:52.807Z,4.60
2022-08-07T04:44:10.532Z,5.00
2022-08-07T04:49:38.430Z,4.10
2022-08-07T04:54:53.990Z,3.80
2022-08-07T05:00:17.248Z,3.80
2022-08-07T05:05:52.101Z,5.00
2022-08-07T05:11:19.360Z,3.80
2022-08-07T05:16:44.011Z,4.40
2022-08-07T05:22:01.780Z,3.30
2022-08-07T05:28:03.239Z,3.70
2022-08-07T05:32:52.202Z,3.20
2022-08-07T05:38:59.994Z,3.20
2022-08-07T05:44:12.000Z,3.50
2022-08-07T05:49:24.040Z,3.10
2022-08-07T05:54:55.555Z,3.00
2022-08-07T06:00:25.677Z,2.30
2022-08-07T06:05:40.764Z,2.80
2022-08-07T06:11:18.129Z,2.80
2022-08-07T06:16:56.386Z,2.30
2022-08-07T06:22:23.562Z,2.60
2022-08-07T06:28:01.918Z,2.70
2022-08-07T06:33:16.175Z,2.60
2022-08-07T06:38:28.498Z,3.00
2022-08-07T06:43:46.582Z,2.10
2022-08-07T06:49:13.697Z,2.30
2022-08-07T06:55:31.567Z,2.80
2022-08-07T07:00:47.786Z,2.60
2022-08-07T07:06:13.714Z,2.00
2022-08-07T07:12:09.131Z,2.10
2022-08-07T07:17:08.098Z,1.70
2022-08-07T07:24:05.970Z,1.30
2022-08-07T07:28:41.923Z,1.30
2022-08-07T07:33:49.068Z,1.10
2022-08-07T07:39:16.648Z,1.20
2022-08-07T07:44:38.566Z,1.60
2022-08-07T07:50:35.521Z,1.20
2022-08-07T07:55:37.758Z,1.50
2022-08-07T08:00:57.171Z,1.70
2022-08-07T08:06:08.038Z,1.20
2022-08-07T08:11:59.677Z,1.70
2022-08-07T08:17:56.230Z,1.40
2022-08-07T08:23:20.648Z,1.70
2022-08-07T08:28:38.578Z,1.30
2022-08-07T08:33:59.502Z,1.20
2022-08-07T08:39:39.571Z,1.40
2022-08-07T08:45:15.916Z,0.80
2022-08-07T08:50:39.723Z,1.20
2022-08-07T08:56:04.376Z,1.30
2022-08-07T09:01:24.254Z,1.40
2022-08-07T09:06:54.452Z,0.90
2022-08-07T09:12:41.961Z,1.40
2022-08-07T09:18:53.193Z,0.70
2022-08-07T09:25:17.857Z,1.00
2022-08-07T09:31:15.512Z,0.90
2022-08-07T09:37:03.172Z,1.30
2022-08-07T09:42:39.472Z,0.90
2022-08-07T09:48:05.180Z,0.80
2022-08-07T09:53:41.138Z,0.40
2022-08-07T09:59:14.742Z,0.80
2022-08-07T10:04:38.057Z,0.80
2022-08-07T10:10:03.373Z,1.00
2022-08-07T10:15:44.798Z,0.70
2022-08-07T10:21:50.590Z,1.40
2022-08-07T10:27:02.971Z,0.70
2022-08-07T10:32:52.921Z,1.00
2022-08-07T10:39:02.332Z,1.10
2022-08-07T10:44:38.642Z,1.10
2022-08-07T10:49:51.752Z,0.90
2022-08-07T10:55:27.132Z,1.10
2022-08-07T11:01:23.938Z,1.10
2022-08-07T11:06:55.813Z,1.00
2022-08-07T11:12:31.570Z,1.20
2022-08-07T11:17:46.067Z,6.60
2022-08-07T11:23:04.784Z,1.80
2022-08-07T11:28:31.343Z,0.60
2022-08-07T11:34:00.802Z,1.30
2022-08-07T11:40:01.123Z,1.00
2022-08-07T11:45:36.052Z,2.40
2022-08-07T11:51:41.993Z,0.70
2022-08-07T11:57:25.054Z,0.80
2022-08-07T12:03:41.639Z,1.70
2022-08-07T12:09:16.509Z,1.10
2022-08-07T12:14:38.561Z,0.90
2022-08-07T12:20:02.592Z,2.60
2022-08-07T12:26:21.360Z,0.80
2022-08-07T12:32:04.238Z,1.00
2022-08-07T12:37:27.876Z,0.90
2022-08-07T12:42:38.221Z,0.80
2022-08-07T12:48:28.367Z,1.10
2022-08-07T12:54:38.036Z,0.90
2022-08-07T12:59:54.736Z,1.00
2022-08-07T13:06:03.651Z,1.30
2022-08-07T13:10:59.610Z,1.60
2022-08-07T13:16:31.080Z,1.10
2022-08-07T13:21:54.997Z,1.40
2022-08-07T13:28:05.443Z,0.90
2022-08-07T13:33:06.864Z,1.00
2022-08-07T13:38:58.665Z,1.00
2022-08-07T13:44:10.366Z,1.10
2022-08-07T13:50:35.815Z,0.80
2022-08-07T13:55:07.317Z,1.00
2022-08-07T14:00:26.943Z,1.10
2022-08-07T14:05:38.258Z,1.30
2022-08-07T14:11:14.700Z,1.30
2022-08-07T14:16:35.008Z,1.00
2022-08-07T14:22:01.830Z,1.00
2022-08-07T14:28:12.551Z,1.50
2022-08-07T14:32:49.858Z,1.30
2022-08-07T14:38:05.999Z,1.20
2022-08-07T14:48:48.477Z,1.10
2022-08-07T14:54:30.180Z,1.00
2022-08-07T15:05:26.887Z,1.10
2022-08-07T15:11:01.772Z,1.30
2022-08-07T15:27:23.270Z,0.90
2022-08-07T15:33:01.558Z,1.30
2022-08-07T15:44:04.809Z,1.10
2022-08-07T15:54:51.689Z,1.50
2022-08-07T16:00:32.135Z,0.90
2022-08-07T16:05:58.607Z,1.40
2022-08-07T16:11:25.372Z,1.30
2022-08-07T16:18:02.587Z,0.70
2022-08-07T16:23:11.882Z,1.40
2022-08-07T16:29:18.458Z,1.30
2022-08-07T16:34:27.731Z,2.60
2022-08-07T16:40:12.869Z,3.00
2022-08-07T16:46:33.141Z,2.50
2022-08-07T16:52:01.636Z,3.10
2022-08-07T16:58:02.322Z,3.00
2022-08-07T17:03:57.700Z,7.40
2022-08-07T17:09:13.847Z,3.70
2022-08-07T17:14:39.096Z,5.20
2022-08-07T17:20:02.567Z,4.10
2022-08-07T17:25:17.641Z,2.20
2022-08-07T17:30:32.332Z,4.10
2022-08-07T17:36:04.391Z,3.20
2022-08-07T17:42:04.071Z,9.90
2022-08-07T17:47:16.836Z,4.20
2022-08-07T17:52:31.686Z,1.90
2022-08-07T17:57:56.400Z,2.80
2022-08-07T18:03:20.222Z,2.20
2022-08-07T18:08:34.247Z,2.50
2022-08-07T18:13:50.944Z,1.50
2022-08-07T18:21:03.958Z,1.30
2022-08-07T18:24:51.117Z,3.70
2022-08-07T18:30:31.502Z,3.00
2022-08-07T18:36:00.280Z,4.40
2022-08-07T18:41:45.306Z,4.60
2022-08-07T18:47:22.540Z,3.20
2022-08-07T18:53:06.763Z,5.40
2022-08-07T18:58:54.410Z,3.70
2022-08-07T19:04:09.809Z,3.60
2022-08-07T19:09:56.088Z,2.40
2022-08-07T19:16:03.108Z,3.00
2022-08-07T19:21:08.517Z,3.60
2022-08-07T19:32:07.864Z,4.30
2022-08-07T19:37:55.319Z,4.40
2022-08-07T19:43:48.980Z,4.50
2022-08-07T19:49:18.551Z,3.30
2022-08-07T19:55:03.650Z,3.40
2022-08-07T20:00:39.920Z,4.60
2022-08-07T20:06:15.329Z,3.10
2022-08-07T20:12:22.364Z,4.30
2022-08-07T20:17:33.458Z,7.00
2022-08-07T20:22:59.615Z,2.70
2022-08-07T20:28:39.705Z,2.80
2022-08-07T20:34:39.963Z,3.60
2022-08-07T20:40:32.367Z,3.00
2022-08-07T20:46:27.301Z,2.90
2022-08-07T20:52:16.810Z,3.00
2022-08-07T20:58:02.363Z,3.00
2022-08-07T21:03:38.322Z,3.00
2022-08-07T21:09:07.503Z,3.10
2022-08-07T21:14:48.513Z,2.50
2022-08-07T21:20:29.466Z,2.90
2022-08-07T21:26:14.916Z,2.30
2022-08-07T21:32:42.318Z,2.70
2022-08-07T21:37:58.780Z,2.70
2022-08-07T21:43:36.639Z,2.90
2022-08-07T21:49:40.765Z,3.00
2022-08-07T21:56:35.809Z,2.10
2022-08-07T22:02:11.393Z,2.00
2022-08-07T22:07:59.390Z,2.10
2022-08-07T22:14:06.039Z,2.40
2022-08-07T22:20:30.047Z,2.60
2022-08-07T22:26:29.222Z,2.70
2022-08-07T22:32:20.517Z,2.50
2022-08-07T22:38:25.582Z,2.00
2022-08-07T22:43:57.063Z,1.80
2022-08-07T22:49:54.364Z,1.90
2022-08-07T22:55:45.732Z,1.90
2022-08-07T23:01:50.636Z,1.80
2022-08-07T23:07:41.539Z,2.00
2022-08-07T23:13:29.280Z,1.80
2022-08-07T23:19:38.846Z,1.70
2022-08-07T23:25:28.337Z,2.60
2022-08-07T23:31:07.142Z,2.00
2022-08-07T23:37:19.965Z,1.60
2022-08-07T23:43:02.628Z,1.50
2022-08-07T23:49:49.935Z,1.60
2022-08-07T23:55:53.602Z,2.00
